Terminal Aerodrome Forecast
Issued by NWS Sioux Falls, SD

Home | Current Version | Previous Version | Text Only | Print | Product List | Glossary On
Versions: 1 2 3 4 5 6 7 8 9 10 11 12 13 14 15 16 17 18 19 20 21 22 23 24 25 26 27
000
FTUS43 KFSD 201122
TAFSUX
TAF
KSUX 201122Z 2012/2112 01005KT P6SM -RA OVC035
     FM201800 36010KT P6SM OVC040
     FM202300 34005KT P6SM OVC060
     FM210600 31007KT P6SM SKC=

USA.gov is the U.S. government's official web portal to all federal, state and local government web resources and services.